Time;durP1;ratioP1;P1;durP2;ratioP2;P2;SDS_P1;SDS_P2;PMS_P1;PMS_P2;Temp;Humidity;BMP_temperature;BMP_pressure;BME280_temperature;BME280_humidity;BME280_pressure;Samples;Min_cycle;Max_cycle;Signal;HPM_P1;HPM_P2
2023/07/18 00:02:56;;;;;;;8.00;4.50;;;;;;;;;;10346218;28;20050;-63
2023/07/18 00:07:56;;;;;;;6.05;4.28;;;;;;;;;;10365765;28;20119;-60
2023/07/18 00:12:58;;;;;;;7.15;4.22;;;;;;;;;;10365257;28;20496;-61
2023/07/18 00:18:01;;;;;;;8.23;4.65;;;;;;;;;;10358386;28;20026;-64
2023/07/18 00:23:02;;;;;;;7.32;4.53;;;;;;;;;;10355253;28;20069;-62
2023/07/18 00:28:03;;;;;;;8.05;4.13;;;;;;;;;;10364283;28;20038;-61
2023/07/18 00:33:03;;;;;;;10.10;4.13;;;;;;;;;;10364901;28;20108;-61
2023/07/18 00:38:04;;;;;;;9.32;4.30;;;;;;;;;;10364349;28;20025;-60
2023/07/18 00:43:15;;;;;;;8.40;4.50;;;;;;;;;;10357100;28;20061;-60
2023/07/18 00:48:17;;;;;;;7.82;4.18;;;;;;;;;;10357575;28;20092;-62
2023/07/18 00:53:18;;;;;;;4.43;3.70;;;;;;;;;;10364815;28;20034;-62
2023/07/18 00:58:19;;;;;;;7.97;4.20;;;;;;;;;;10364859;28;20109;-61
2023/07/18 01:03:20;;;;;;;5.82;4.10;;;;;;;;;;10347204;28;20042;-66
2023/07/18 01:08:21;;;;;;;6.07;4.55;;;;;;;;;;10346012;28;20030;-65
2023/07/18 01:13:22;;;;;;;5.13;4.07;;;;;;;;;;10343644;28;20026;-63
2023/07/18 01:18:22;;;;;;;7.47;4.05;;;;;;;;;;10364905;28;20397;-70
2023/07/18 01:23:24;;;;;;;7.82;4.15;;;;;;;;;;10360371;28;20041;-70
2023/07/18 01:28:24;;;;;;;4.93;3.80;;;;;;;;;;10364625;28;20081;-69
2023/07/18 01:33:27;;;;;;;5.30;3.50;;;;;;;;;;10360339;28;20029;-72
2023/07/18 01:38:31;;;;;;;5.10;4.05;;;;;;;;;;10363500;28;20398;-71
2023/07/18 01:43:31;;;;;;;8.65;4.03;;;;;;;;;;10358325;28;20029;-67
2023/07/18 01:48:32;;;;;;;4.40;3.80;;;;;;;;;;10365605;28;20041;-70
2023/07/18 01:53:33;;;;;;;4.57;3.47;;;;;;;;;;10366748;28;20030;-70
2023/07/18 01:58:33;;;;;;;4.90;3.75;;;;;;;;;;10370648;28;20607;-72
2023/07/18 02:03:35;;;;;;;9.15;3.85;;;;;;;;;;10358139;28;20545;-60
2023/07/18 02:08:36;;;;;;;4.88;3.42;;;;;;;;;;10328614;28;20054;-67
2023/07/18 02:13:36;;;;;;;5.35;3.95;;;;;;;;;;10328601;28;20030;-69
2023/07/18 02:18:37;;;;;;;4.97;3.42;;;;;;;;;;10326648;28;21249;-67
2023/07/18 02:23:38;;;;;;;4.82;3.60;;;;;;;;;;10328686;28;20022;-70
2023/07/18 02:28:39;;;;;;;3.90;3.30;;;;;;;;;;10330873;28;20033;-60
2023/07/18 02:33:39;;;;;;;6.93;3.70;;;;;;;;;;10343786;28;20073;-65
2023/07/18 02:38:40;;;;;;;7.15;3.83;;;;;;;;;;10339534;28;20053;-63
2023/07/18 02:43:40;;;;;;;5.95;3.72;;;;;;;;;;10326338;28;20034;-63
2023/07/18 02:48:42;;;;;;;6.93;4.03;;;;;;;;;;10337397;28;20692;-63
2023/07/18 02:53:43;;;;;;;6.53;3.53;;;;;;;;;;10325733;28;20029;-63
2023/07/18 02:58:43;;;;;;;6.45;3.85;;;;;;;;;;10329547;28;20052;-63
2023/07/18 03:03:44;;;;;;;5.22;3.50;;;;;;;;;;10337002;28;20605;-63
2023/07/18 03:08:45;;;;;;;7.75;3.70;;;;;;;;;;10366597;28;20045;-63
2023/07/18 03:13:45;;;;;;;5.75;3.85;;;;;;;;;;10357860;28;20030;-63
2023/07/18 03:18:46;;;;;;;4.95;3.42;;;;;;;;;;10357235;28;20539;-61
2023/07/18 03:23:47;;;;;;;5.40;3.45;;;;;;;;;;10364043;28;20034;-65
2023/07/18 03:28:48;;;;;;;4.13;3.13;;;;;;;;;;10364736;28;20120;-63
2023/07/18 03:33:48;;;;;;;4.22;3.53;;;;;;;;;;10366616;28;20026;-65
2023/07/18 03:38:49;;;;;;;4.43;3.20;;;;;;;;;;10365705;28;20556;-66
2023/07/18 03:43:49;;;;;;;5.03;3.75;;;;;;;;;;10366751;28;20026;-66
2023/07/18 03:48:51;;;;;;;4.60;3.20;;;;;;;;;;10366265;28;20029;-63
2023/07/18 03:53:52;;;;;;;4.38;3.30;;;;;;;;;;10363498;28;20026;-65
2023/07/18 03:58:52;;;;;;;5.32;3.33;;;;;;;;;;10362393;28;20022;-63
2023/07/18 04:03:53;;;;;;;3.75;3.03;;;;;;;;;;10344480;28;20046;-66
2023/07/18 04:08:54;;;;;;;3.70;3.40;;;;;;;;;;10325605;28;20030;-65
2023/07/18 04:13:54;;;;;;;3.70;3.10;;;;;;;;;;10320629;28;20018;-65
2023/07/18 04:18:55;;;;;;;5.22;3.28;;;;;;;;;;10323213;28;20054;-65
2023/07/18 04:23:55;;;;;;;4.40;3.22;;;;;;;;;;10323977;28;20026;-65
2023/07/18 04:28:56;;;;;;;3.55;2.97;;;;;;;;;;10320918;28;20601;-60
2023/07/18 04:33:56;;;;;;;3.83;2.78;;;;;;;;;;10315009;28;20406;-61
2023/07/18 04:38:57;;;;;;;5.97;2.90;;;;;;;;;;10310679;28;20417;-61
2023/07/18 04:43:58;;;;;;;3.65;3.28;;;;;;;;;;10322962;28;20023;-60
2023/07/18 04:48:58;;;;;;;4.65;3.47;;;;;;;;;;10314841;28;20030;-60
2023/07/18 04:53:59;;;;;;;5.43;3.47;;;;;;;;;;10322121;28;20046;-61
2023/07/18 04:59:00;;;;;;;3.97;3.25;;;;;;;;;;10323607;28;20058;-59
2023/07/18 05:04:00;;;;;;;3.75;3.30;;;;;;;;;;10344828;28;20493;-63
2023/07/18 05:09:01;;;;;;;3.45;3.13;;;;;;;;;;10363472;28;20041;-60
2023/07/18 05:14:02;;;;;;;5.18;3.40;;;;;;;;;;10363030;28;20030;-64
2023/07/18 05:19:02;;;;;;;6.10;3.45;;;;;;;;;;10353907;28;20033;-61
2023/07/18 05:24:03;;;;;;;4.15;3.45;;;;;;;;;;10363718;28;20030;-62
2023/07/18 05:29:03;;;;;;;4.07;3.38;;;;;;;;;;10355824;28;20041;-61
2023/07/18 05:34:04;;;;;;;4.03;3.05;;;;;;;;;;10370629;28;20511;-62
2023/07/18 05:39:06;;;;;;;3.70;3.20;;;;;;;;;;10371242;28;20520;-61
2023/07/18 05:44:07;;;;;;;3.97;3.10;;;;;;;;;;10367096;28;20505;-59
2023/07/18 05:49:08;;;;;;;3.20;2.90;;;;;;;;;;10370514;28;20034;-69
2023/07/18 05:54:09;;;;;;;3.30;2.90;;;;;;;;;;10369681;28;21005;-60
2023/07/18 05:59:09;;;;;;;11.65;5.50;;;;;;;;;;10358389;28;20045;-64
2023/07/18 06:04:10;;;;;;;25.52;10.48;;;;;;;;;;10360745;28;20045;-64
2023/07/18 06:09:12;;;;;;;17.40;10.13;;;;;;;;;;10369213;28;20084;-64
2023/07/18 06:14:13;;;;;;;16.90;9.90;;;;;;;;;;10359683;28;20025;-58
2023/07/18 06:19:13;;;;;;;18.08;9.50;;;;;;;;;;10365695;28;20475;-58
2023/07/18 06:24:16;;;;;;;25.17;10.43;;;;;;;;;;10352210;28;20386;-60
2023/07/18 06:29:20;;;;;;;18.08;9.05;;;;;;;;;;10364785;28;20073;-60
2023/07/18 06:34:21;;;;;;;22.35;9.15;;;;;;;;;;10366160;28;20038;-60
2023/07/18 06:39:21;;;;;;;19.92;9.82;;;;;;;;;;10364487;28;20034;-60
2023/07/18 06:44:22;;;;;;;12.43;8.95;;;;;;;;;;10365737;28;20018;-60
2023/07/18 06:49:23;;;;;;;15.30;8.95;;;;;;;;;;10366140;28;20025;-60
2023/07/18 06:54:23;;;;;;;16.20;9.15;;;;;;;;;;10353386;28;20458;-60
2023/07/18 06:59:24;;;;;;;19.13;9.50;;;;;;;;;;10348351;28;20134;-60
2023/07/18 07:04:24;;;;;;;17.98;9.00;;;;;;;;;;10343698;28;20049;-60
2023/07/18 07:09:25;;;;;;;13.32;8.40;;;;;;;;;;10327377;28;20022;-60
2023/07/18 07:14:26;;;;;;;14.63;8.45;;;;;;;;;;10326658;28;20018;-60
2023/07/18 07:19:27;;;;;;;16.70;9.07;;;;;;;;;;10316766;28;20527;-61
2023/07/18 07:24:27;;;;;;;15.57;8.10;;;;;;;;;;10326486;28;20101;-60
2023/07/18 07:29:28;;;;;;;16.98;8.15;;;;;;;;;;10326066;28;20018;-61
2023/07/18 07:34:29;;;;;;;13.82;8.27;;;;;;;;;;10325836;28;20018;-62
2023/07/18 07:39:30;;;;;;;16.23;8.65;;;;;;;;;;10323073;28;20064;-60
2023/07/18 07:44:31;;;;;;;15.27;8.40;;;;;;;;;;10324791;28;20061;-60
2023/07/18 07:49:31;;;;;;;12.82;8.25;;;;;;;;;;10307200;28;20035;-61
2023/07/18 07:54:32;;;;;;;15.43;7.72;;;;;;;;;;10324454;28;20486;-61
2023/07/18 07:59:33;;;;;;;16.52;7.78;;;;;;;;;;10322413;28;20385;-60
2023/07/18 08:04:33;;;;;;;10.05;7.32;;;;;;;;;;10349730;28;20421;-60
2023/07/18 08:09:34;;;;;;;13.68;7.32;;;;;;;;;;10366106;28;20041;-60
2023/07/18 08:14:37;;;;;;;12.85;7.82;;;;;;;;;;10341836;28;20470;-60
2023/07/18 08:19:38;;;;;;;9.10;6.57;;;;;;;;;;10365002;28;20565;-60
2023/07/18 08:24:39;;;;;;;11.55;6.95;;;;;;;;;;10358343;28;20050;-60
2023/07/18 08:29:41;;;;;;;11.75;6.78;;;;;;;;;;10360408;28;20477;-60
2023/07/18 08:34:42;;;;;;;11.40;7.32;;;;;;;;;;10364469;28;20112;-60
2023/07/18 08:39:43;;;;;;;11.52;7.35;;;;;;;;;;10363562;28;20025;-60
2023/07/18 08:44:45;;;;;;;10.32;6.82;;;;;;;;;;10344851;28;20041;-60
2023/07/18 08:49:47;;;;;;;18.60;7.45;;;;;;;;;;10346244;28;20046;-62
2023/07/18 08:54:47;;;;;;;12.30;6.80;;;;;;;;;;10364295;28;20018;-64
2023/07/18 08:59:49;;;;;;;11.30;7.05;;;;;;;;;;10369118;28;20073;-60
2023/07/18 09:04:50;;;;;;;12.60;7.10;;;;;;;;;;10342154;28;20094;-65
2023/07/18 09:09:51;;;;;;;10.20;7.15;;;;;;;;;;10332091;28;20042;-65
2023/07/18 09:14:56;;;;;;;10.18;6.97;;;;;;;;;;10324415;28;20037;-64
2023/07/18 09:20:07;;;;;;;10.68;6.72;;;;;;;;;;10331135;28;20027;-66
2023/07/18 09:25:08;;;;;;;9.40;7.03;;;;;;;;;;10306968;28;20382;-64
2023/07/18 09:30:09;;;;;;;11.30;7.47;;;;;;;;;;10313892;28;20014;-65
2023/07/18 09:35:10;;;;;;;11.77;6.57;;;;;;;;;;10330967;28;20567;-65
2023/07/18 09:40:13;;;;;;;10.18;6.75;;;;;;;;;;10330816;28;20489;-65
2023/07/18 09:45:16;;;;;;;10.73;7.00;;;;;;;;;;10318348;28;20085;-66
2023/07/18 09:50:16;;;;;;;8.65;6.43;;;;;;;;;;10320751;28;20028;-65
2023/07/18 09:55:26;;;;;;;12.27;6.38;;;;;;;;;;10330466;28;20022;-62
2023/07/18 10:00:28;;;;;;;8.88;6.13;;;;;;;;;;10330222;28;20314;-60
2023/07/18 10:05:29;;;;;;;8.73;6.60;;;;;;;;;;10321412;28;20450;-60
2023/07/18 10:10:31;;;;;;;9.18;6.28;;;;;;;;;;10312017;28;20084;-61
2023/07/18 10:16:13;;;;;;;11.20;6.20;;;;;;;;;;10318145;28;20026;-60
2023/07/18 10:21:37;;;;;;;8.23;6.18;;;;;;;;;;10301166;28;20030;-60
2023/07/18 10:26:39;;;;;;;11.43;6.20;;;;;;;;;;10316063;28;20034;-60
2023/07/18 10:31:40;;;;;;;11.52;6.50;;;;;;;;;;10327991;28;20038;-60
2023/07/18 10:37:04;;;;;;;8.95;6.18;;;;;;;;;;10317170;28;20482;-61
2023/07/18 10:42:24;;;;;;;11.32;6.57;;;;;;;;;;10326587;28;20114;-60
2023/07/18 10:47:27;;;;;;;11.18;6.70;;;;;;;;;;10328418;28;20022;-60
2023/07/18 10:52:28;;;;;;;8.45;5.25;;;;;;;;;;10328069;28;20027;-60
2023/07/18 10:57:35;;;;;;;9.57;6.55;;;;;;;;;;10328338;28;20022;-60
2023/07/18 11:02:39;;;;;;;7.70;5.73;;;;;;;;;;10330623;28;20049;-65
2023/07/18 11:07:46;;;;;;;10.57;5.63;;;;;;;;;;10358990;28;20455;-66
2023/07/18 11:12:47;;;;;;;7.65;6.13;;;;;;;;;;10367401;28;20032;-66
2023/07/18 11:17:47;;;;;;;8.57;5.82;;;;;;;;;;10366908;28;20477;-65
2023/07/18 11:22:50;;;;;;;7.85;5.70;;;;;;;;;;10365138;28;20030;-66
2023/07/18 11:27:51;;;;;;;7.68;5.70;;;;;;;;;;10363744;28;20036;-66
2023/07/18 11:32:51;;;;;;;8.07;5.53;;;;;;;;;;10366303;28;20036;-66
2023/07/18 11:37:53;;;;;;;7.50;6.00;;;;;;;;;;10363309;28;20034;-64
2023/07/18 11:42:57;;;;;;;10.90;5.72;;;;;;;;;;10365434;28;20116;-65
2023/07/18 11:47:59;;;;;;;11.27;5.90;;;;;;;;;;10355561;28;20057;-65
2023/07/18 11:53:03;;;;;;;9.77;5.60;;;;;;;;;;10363951;28;20030;-66
2023/07/18 11:58:08;;;;;;;11.98;5.55;;;;;;;;;;10366954;28;20026;-60
2023/07/18 12:03:08;;;;;;;10.20;5.97;;;;;;;;;;10366160;28;20409;-60
2023/07/18 12:08:09;;;;;;;15.48;6.15;;;;;;;;;;10370149;28;20029;-60
2023/07/18 12:13:10;;;;;;;9.82;5.40;;;;;;;;;;10369302;28;20478;-60
2023/07/18 12:18:11;;;;;;;11.98;5.63;;;;;;;;;;10365166;28;20041;-60
2023/07/18 12:23:12;;;;;;;9.63;5.60;;;;;;;;;;10363996;28;20041;-60
2023/07/18 12:28:13;;;;;;;11.40;5.68;;;;;;;;;;10364799;28;20026;-59
2023/07/18 12:33:14;;;;;;;8.30;5.60;;;;;;;;;;10364995;28;20022;-60
2023/07/18 12:38:15;;;;;;;7.97;5.22;;;;;;;;;;10360344;28;20040;-60
2023/07/18 12:43:15;;;;;;;9.32;5.80;;;;;;;;;;10355182;28;20029;-60
2023/07/18 12:48:16;;;;;;;10.77;5.28;;;;;;;;;;10364815;28;20026;-63
2023/07/18 12:53:17;;;;;;;9.05;5.82;;;;;;;;;;10358959;28;20134;-63
2023/07/18 12:58:17;;;;;;;7.80;5.10;;;;;;;;;;10353678;28;20022;-61
2023/07/18 13:03:18;;;;;;;6.97;5.10;;;;;;;;;;10347009;28;20509;-61
2023/07/18 13:08:18;;;;;;;7.07;5.45;;;;;;;;;;10348572;28;20026;-62
2023/07/18 13:13:19;;;;;;;9.48;5.18;;;;;;;;;;10351893;28;20501;-60
2023/07/18 13:18:19;;;;;;;8.75;5.22;;;;;;;;;;10346956;28;20019;-60
2023/07/18 13:23:20;;;;;;;7.63;4.90;;;;;;;;;;10353857;28;20046;-62
2023/07/18 13:28:21;;;;;;;8.93;5.00;;;;;;;;;;10355883;28;20038;-65
2023/07/18 13:33:21;;;;;;;9.93;4.53;;;;;;;;;;10346087;28;20037;-61
2023/07/18 13:38:22;;;;;;;6.18;4.50;;;;;;;;;;10359151;28;20033;-61
2023/07/18 13:43:22;;;;;;;10.65;5.60;;;;;;;;;;10361396;28;20030;-64
2023/07/18 13:48:23;;;;;;;5.72;4.90;;;;;;;;;;10364321;28;20022;-61
2023/07/18 13:53:24;;;;;;;8.07;4.60;;;;;;;;;;10350656;28;20030;-59
2023/07/18 13:58:24;;;;;;;8.02;4.47;;;;;;;;;;10353829;28;20030;-60
2023/07/18 14:03:25;;;;;;;7.15;4.85;;;;;;;;;;10367908;28;20399;-63
2023/07/18 14:08:27;;;;;;;9.23;5.43;;;;;;;;;;10368840;28;20017;-66
2023/07/18 14:13:28;;;;;;;6.00;4.63;;;;;;;;;;10359087;28;20045;-60
2023/07/18 14:18:29;;;;;;;14.30;6.00;;;;;;;;;;10369688;28;20022;-63
2023/07/18 14:23:29;;;;;;;16.38;5.93;;;;;;;;;;10356956;28;20029;-60
2023/07/18 14:28:30;;;;;;;9.88;6.00;;;;;;;;;;10366023;28;20033;-60
2023/07/18 14:33:31;;;;;;;9.85;6.50;;;;;;;;;;10367982;28;20018;-60
2023/07/18 14:38:31;;;;;;;10.73;6.25;;;;;;;;;;10367857;28;20030;-63
2023/07/18 14:43:33;;;;;;;8.50;6.10;;;;;;;;;;10367982;28;20099;-60
2023/07/18 14:48:33;;;;;;;12.15;5.80;;;;;;;;;;10369617;28;20037;-60
2023/07/18 14:53:34;;;;;;;10.00;6.38;;;;;;;;;;10368506;28;20470;-59
2023/07/18 14:58:35;;;;;;;9.05;6.22;;;;;;;;;;10367487;28;20547;-60
2023/07/18 15:03:35;;;;;;;10.95;5.38;;;;;;;;;;10347129;28;20046;-60
2023/07/18 15:08:36;;;;;;;8.00;6.00;;;;;;;;;;10367023;28;20102;-60
2023/07/18 15:13:37;;;;;;;10.45;6.07;;;;;;;;;;10365746;28;20053;-59
2023/07/18 15:18:37;;;;;;;8.68;5.53;;;;;;;;;;10367402;28;21067;-60
2023/07/18 15:23:38;;;;;;;11.35;6.43;;;;;;;;;;10364499;28;20034;-59
2023/07/18 15:28:39;;;;;;;11.25;5.75;;;;;;;;;;10358814;28;20026;-60
2023/07/18 15:33:39;;;;;;;9.20;5.43;;;;;;;;;;10348920;28;20034;-60
2023/07/18 15:38:40;;;;;;;10.73;5.45;;;;;;;;;;10351003;28;20018;-60
2023/07/18 15:43:42;;;;;;;7.00;5.30;;;;;;;;;;10365834;28;20033;-60
2023/07/18 15:48:43;;;;;;;8.57;5.82;;;;;;;;;;10358081;28;20513;-60
2023/07/18 15:53:44;;;;;;;8.73;4.97;;;;;;;;;;10358968;28;20478;-60
2023/07/18 15:58:45;;;;;;;6.82;5.15;;;;;;;;;;10363645;28;20037;-61
2023/07/18 16:03:45;;;;;;;7.90;5.25;;;;;;;;;;10345207;28;20081;-60
2023/07/18 16:08:46;;;;;;;8.50;5.32;;;;;;;;;;10323805;28;20376;-60
2023/07/18 16:13:46;;;;;;;7.60;4.63;;;;;;;;;;10325531;28;20390;-60
2023/07/18 16:18:59;;;;;;;8.55;5.15;;;;;;;;;;10325074;28;20046;-60
2023/07/18 16:24:01;;;;;;;7.15;5.03;;;;;;;;;;10324799;28;20030;-60
2023/07/18 16:29:01;;;;;;;7.45;5.47;;;;;;;;;;10323709;28;20027;-61
2023/07/18 16:34:02;;;;;;;5.72;4.90;;;;;;;;;;10324429;28;20034;-59
2023/07/18 16:39:03;;;;;;;6.72;4.68;;;;;;;;;;10320578;28;20027;-60
2023/07/18 16:44:03;;;;;;;6.90;5.07;;;;;;;;;;10322921;28;20030;-60
2023/07/18 16:49:05;;;;;;;8.32;5.68;;;;;;;;;;10324319;28;20052;-60
2023/07/18 16:54:05;;;;;;;7.22;4.80;;;;;;;;;;10319892;28;20038;-60
2023/07/18 16:59:06;;;;;;;8.07;5.10;;;;;;;;;;10310412;28;20070;-60
2023/07/18 17:04:07;;;;;;;7.65;5.05;;;;;;;;;;10315520;28;20038;-60
2023/07/18 17:09:07;;;;;;;9.70;5.18;;;;;;;;;;10326504;28;20370;-60
2023/07/18 17:14:09;;;;;;;5.88;4.82;;;;;;;;;;10318180;28;20034;-61
2023/07/18 17:19:10;;;;;;;8.65;4.97;;;;;;;;;;10323584;28;20069;-63
2023/07/18 17:24:11;;;;;;;9.15;5.30;;;;;;;;;;10327047;28;20019;-60
2023/07/18 17:29:12;;;;;;;8.07;5.00;;;;;;;;;;10332433;28;20482;-61
2023/07/18 17:34:12;;;;;;;7.85;4.68;;;;;;;;;;10324999;28;20085;-61
2023/07/18 17:39:13;;;;;;;8.05;4.60;;;;;;;;;;10317545;28;20027;-60
2023/07/18 17:44:13;;;;;;;7.13;4.90;;;;;;;;;;10334988;28;20038;-65
2023/07/18 17:49:14;;;;;;;9.40;4.78;;;;;;;;;;10325370;28;20037;-60
2023/07/18 17:54:15;;;;;;;13.63;5.05;;;;;;;;;;10326431;28;20105;-61
2023/07/18 17:59:15;;;;;;;9.20;4.63;;;;;;;;;;10328682;28;20034;-60
2023/07/18 18:04:17;;;;;;;5.63;4.07;;;;;;;;;;10323838;28;20081;-60
2023/07/18 18:09:19;;;;;;;6.05;4.30;;;;;;;;;;10325604;28;20029;-60
2023/07/18 18:27:29;;;;;;;8.57;4.55;;;;;;;;;;10526633;27;20643;-60
2023/07/18 18:32:30;;;;;;;8.10;4.45;;;;;;;;;;10523463;28;20570;-61
2023/07/18 18:37:30;;;;;;;11.38;4.70;;;;;;;;;;10520480;28;20035;-60
2023/07/18 18:42:33;;;;;;;7.75;4.47;;;;;;;;;;10527549;28;20120;-64
2023/07/18 18:47:33;;;;;;;8.07;4.07;;;;;;;;;;10511515;28;20036;-62
2023/07/18 18:52:35;;;;;;;11.95;4.15;;;;;;;;;;10519486;28;20463;-61
2023/07/18 18:57:36;;;;;;;10.63;4.65;;;;;;;;;;10526222;28;20032;-61
2023/07/18 19:02:39;;;;;;;8.95;4.20;;;;;;;;;;10520566;28;20099;-64
2023/07/18 19:07:39;;;;;;;7.47;4.18;;;;;;;;;;10523372;28;20044;-61
2023/07/18 19:12:40;;;;;;;13.00;4.22;;;;;;;;;;10522393;28;20032;-61
2023/07/18 19:17:41;;;;;;;14.30;3.80;;;;;;;;;;10520815;28;20026;-60
2023/07/18 19:22:41;;;;;;;7.40;3.47;;;;;;;;;;10504500;28;20027;-59
2023/07/18 19:27:42;;;;;;;6.30;3.25;;;;;;;;;;10495613;28;20036;-62
2023/07/18 19:32:43;;;;;;;11.93;3.33;;;;;;;;;;10472266;28;20032;-62
2023/07/18 19:37:45;;;;;;;11.45;3.47;;;;;;;;;;10494905;28;20566;-59
2023/07/18 19:42:46;;;;;;;6.20;2.72;;;;;;;;;;10490856;28;21384;-60
2023/07/18 19:47:46;;;;;;;4.13;3.15;;;;;;;;;;10477763;28;20056;-59
2023/07/18 19:52:47;;;;;;;4.95;2.85;;;;;;;;;;10475907;28;20134;-60
2023/07/18 19:57:48;;;;;;;5.63;3.00;;;;;;;;;;10483268;28;20044;-60
2023/07/18 20:02:48;;;;;;;4.45;3.30;;;;;;;;;;10480299;28;20029;-67
2023/07/18 20:07:49;;;;;;;5.07;2.50;;;;;;;;;;10483142;28;20021;-58
2023/07/18 20:12:50;;;;;;;3.28;2.50;;;;;;;;;;10489029;28;20021;-58
2023/07/18 20:17:51;;;;;;;6.60;3.08;;;;;;;;;;10485984;28;20170;-60
2023/07/18 20:22:51;;;;;;;6.38;2.88;;;;;;;;;;10492393;28;20045;-61
2023/07/18 20:27:52;;;;;;;3.88;2.53;;;;;;;;;;10499584;28;20038;-60
2023/07/18 20:32:53;;;;;;;5.82;2.75;;;;;;;;;;10483213;28;20036;-60
2023/07/18 20:37:54;;;;;;;10.18;3.25;;;;;;;;;;10480097;28;20399;-61
2023/07/18 20:42:54;;;;;;;9.25;2.65;;;;;;;;;;10478182;28;20025;-60
2023/07/18 20:47:55;;;;;;;8.55;2.83;;;;;;;;;;10488063;28;20379;-65
2023/07/18 20:52:56;;;;;;;6.20;2.45;;;;;;;;;;10486702;28;20036;-64
2023/07/18 20:57:56;;;;;;;4.32;2.58;;;;;;;;;;10482858;28;20040;-67
2023/07/18 21:02:59;;;;;;;4.85;2.47;;;;;;;;;;10491904;28;20099;-64
2023/07/18 21:08:01;;;;;;;3.53;2.00;;;;;;;;;;10491874;28;20040;-65
2023/07/18 21:13:02;;;;;;;4.20;2.40;;;;;;;;;;10492149;28;20375;-66
2023/07/18 21:18:03;;;;;;;3.38;2.00;;;;;;;;;;10502870;28;20489;-65
2023/07/18 21:23:04;;;;;;;6.20;2.65;;;;;;;;;;10493494;28;20048;-65
2023/07/18 21:28:04;;;;;;;3.72;2.33;;;;;;;;;;10487547;28;20044;-65
2023/07/18 21:33:05;;;;;;;7.78;2.47;;;;;;;;;;10491788;28;20483;-66
2023/07/18 21:38:05;;;;;;;6.30;2.58;;;;;;;;;;10493259;28;20109;-63
2023/07/18 21:43:06;;;;;;;4.63;2.15;;;;;;;;;;10478545;28;20043;-61
2023/07/18 21:48:06;;;;;;;4.72;2.47;;;;;;;;;;10489042;28;20025;-64
2023/07/18 21:53:07;;;;;;;6.22;2.13;;;;;;;;;;10497693;28;20051;-65
2023/07/18 21:58:08;;;;;;;5.15;2.17;;;;;;;;;;10490173;28;20024;-64
2023/07/18 22:03:08;;;;;;;5.18;2.33;;;;;;;;;;10501875;28;20051;-59
2023/07/18 22:08:09;;;;;;;4.10;2.20;;;;;;;;;;10488568;28;20039;-60
2023/07/18 22:13:11;;;;;;;13.30;2.47;;;;;;;;;;10485434;28;20041;-60
2023/07/18 22:18:11;;;;;;;7.10;2.50;;;;;;;;;;10488209;28;20027;-63
2023/07/18 22:23:12;;;;;;;7.22;2.85;;;;;;;;;;10493793;28;20048;-61
2023/07/18 22:28:12;;;;;;;17.02;2.15;;;;;;;;;;10487394;28;20040;-60
2023/07/18 22:33:13;;;;;;;10.75;2.47;;;;;;;;;;10488151;28;20093;-60
2023/07/18 22:38:14;;;;;;;11.32;2.20;;;;;;;;;;10487082;28;20029;-61
2023/07/18 22:43:15;;;;;;;7.55;2.05;;;;;;;;;;10487024;28;20467;-60
2023/07/18 22:48:16;;;;;;;4.28;2.22;;;;;;;;;;10486304;28;20384;-60
2023/07/18 22:53:17;;;;;;;5.22;2.42;;;;;;;;;;10486112;28;20025;-60
2023/07/18 22:58:18;;;;;;;7.55;2.20;;;;;;;;;;10487608;28;20024;-60
2023/07/18 23:03:19;;;;;;;4.82;1.83;;;;;;;;;;10494564;28;20028;-60
2023/07/18 23:08:19;;;;;;;7.40;2.20;;;;;;;;;;10494078;28;20020;-62
2023/07/18 23:13:20;;;;;;;3.92;1.88;;;;;;;;;;10495644;28;20020;-60
2023/07/18 23:18:21;;;;;;;5.78;1.77;;;;;;;;;;10473498;28;20021;-60
2023/07/18 23:23:22;;;;;;;5.63;2.15;;;;;;;;;;10491068;28;20574;-59
2023/07/18 23:28:23;;;;;;;5.68;1.80;;;;;;;;;;10495026;28;20467;-60
2023/07/18 23:33:23;;;;;;;3.60;2.17;;;;;;;;;;10493101;28;20124;-59
2023/07/18 23:38:24;;;;;;;6.10;2.00;;;;;;;;;;10493901;28;20532;-60
2023/07/18 23:43:28;;;;;;;2.65;1.90;;;;;;;;;;10497914;28;20394;-59
2023/07/18 23:48:30;;;;;;;5.45;1.88;;;;;;;;;;10491983;28;20515;-60
2023/07/18 23:53:30;;;;;;;3.00;2.20;;;;;;;;;;10473865;28;20024;-60
2023/07/18 23:58:31;;;;;;;3.58;1.73;;;;;;;;;;10492684;28;20040;-62
